Wetterdaten: Woche 20.04.15 - 26.04.15 (KW17)
Datum Zeit Temp. A. Feuchte A. Luftdruck Regen Wind Richtung Taupunkt Windchill Windben
20.04.2015 00:00 3,7 C 77 % 1020,9 hPa 0,0 l/m 0,0 km/h N 0,0 C 3,7 C 0,0 km/h
20.04.2015 01:00 3,4 C 80 % 1020,8 hPa 0,0 l/m 0,3 km/h N 0,3 C 3,4 C 2,8 km/h
20.04.2015 02:00 4,4 C 75 % 1020,5 hPa 0,0 l/m 0,2 km/h N 0,4 C 4,4 C 1,2 km/h
20.04.2015 03:00 4,8 C 74 % 1020,4 hPa 0,0 l/m 1,0 km/h N 0,5 C 4,8 C 5,6 km/h
20.04.2015 04:00 7,2 C 64 % 1020,1 hPa 0,0 l/m 4,9 km/h N 0,8 C 7,1 C 13,7 km/h
20.04.2015 05:00 7,3 C 62 % 1020,1 hPa 0,0 l/m 7,8 km/h N 0,5 C 6,1 C 18,9 km/h
20.04.2015 06:00 7,2 C 62 % 1020,1 hPa 0,0 l/m 8,1 km/h N 0,4 C 5,8 C 20,5 km/h
20.04.2015 07:00 7,6 C 61 % 1020,4 hPa 0,0 l/m 4,6 km/h N 0,7 C 7,6 C 15,7 km/h
20.04.2015 08:00 9,5 C 58 % 1020,8 hPa 0,0 l/m 12,0 km/h N 1,7 C 5,9 C 27,4 km/h
20.04.2015 09:00 10,9 C 56 % 1020,7 hPa 0,0 l/m 12,8 km/h N 2,4 C 7,1 C 24,5 km/h
20.04.2015 10:00 12,0 C 54 % 1020,4 hPa 0,0 l/m 14,0 km/h N 3,0 C 8,0 C 31,0 km/h
20.04.2015 11:00 13,3 C 52 % 1020,0 hPa 0,0 l/m 15,7 km/h N 3,7 C 8,9 C 35,4 km/h
20.04.2015 12:00 15,1 C 48 % 1019,4 hPa 0,0 l/m 17,9 km/h N 4,1 C 10,4 C 36,2 km/h
20.04.2015 13:00 15,9 C 46 % 1019,0 hPa 0,0 l/m 16,8 km/h N 4,3 C 11,7 C 34,2 km/h
20.04.2015 14:00 16,6 C 43 % 1018,2 hPa 0,0 l/m 17,3 km/h N 4,1 C 12,5 C 35,8 km/h
20.04.2015 15:00 16,9 C 41 % 1017,5 hPa 0,0 l/m 17,5 km/h N 3,4 C 12,7 C 35,4 km/h
20.04.2015 16:00 17,3 C 41 % 1017,2 hPa 0,0 l/m 16,5 km/h N 4,0 C 13,5 C 37,5 km/h
20.04.2015 17:00 16,9 C 41 % 1017,2 hPa 0,0 l/m 15,0 km/h N 3,4 C 13,5 C 31,0 km/h
20.04.2015 18:00 16,5 C 41 % 1017,7 hPa 0,0 l/m 14,5 km/h N 3,1 C 13,2 C 32,2 km/h
20.04.2015 19:00 16,3 C 41 % 1018,2 hPa 0,0 l/m 12,8 km/h N 2,9 C 13,4 C 31,8 km/h
20.04.2015 20:00 15,8 C 43 % 1018,9 hPa 0,0 l/m 11,0 km/h N 3,2 C 13,7 C 26,2 km/h
20.04.2015 21:00 15,4 C 45 % 1019,8 hPa 0,0 l/m 8,3 km/h N 3,4 C 14,4 C 22,1 km/h
20.04.2015 22:00 15,2 C 45 % 1020,1 hPa 0,0 l/m 9,5 km/h N 3,2 C 13,6 C 24,5 km/h
20.04.2015 23:00 14,4 C 48 % 1020,5 hPa 0,0 l/m 7,5 km/h N 3,4 C 13,7 C 22,5 km/h
21.04.2015 00:00 13,7 C 50 % 1020,8 hPa 0,0 l/m 8,7 km/h N 3,4 C 12,3 C 22,1 km/h
21.04.2015 01:00 13,0 C 52 % 1021,2 hPa 0,0 l/m 7,9 km/h N 3,2 C 12,1 C 21,3 km/h
21.04.2015 02:00 12,2 C 54 % 1021,5 hPa 0,0 l/m 7,9 km/h N 3,0 C 11,3 C 20,9 km/h
21.04.2015 03:00 11,1 C 56 % 1022,1 hPa 0,0 l/m 6,3 km/h N 2,7 C 11,0 C 18,5 km/h
21.04.2015 04:00 10,4 C 59 % 1022,9 hPa 0,0 l/m 5,0 km/h N 2,7 C 10,4 C 13,7 km/h
21.04.2015 05:00 9,5 C 61 % 1023,1 hPa 0,0 l/m 5,1 km/h N 2,3 C 9,4 C 12,9 km/h
21.04.2015 06:00 9,1 C 62 % 1023,3 hPa 0,0 l/m 4,2 km/h N 2,2 C 9,1 C 12,5 km/h
21.04.2015 07:00 9,4 C 60 % 1024,0 hPa 0,0 l/m 5,0 km/h N 2,0 C 9,4 C 15,3 km/h
21.04.2015 08:00 10,1 C 55 % 1024,5 hPa 0,0 l/m 8,4 km/h N 1,4 C 8,7 C 21,3 km/h
21.04.2015 09:00 11,8 C 51 % 1024,3 hPa 0,0 l/m 12,5 km/h N 1,8 C 8,3 C 25,7 km/h
21.04.2015 10:00 13,2 C 51 % 1024,0 hPa 0,0 l/m 11,5 km/h N 3,1 C 10,4 C 28,6 km/h
21.04.2015 11:00 14,9 C 48 % 1023,5 hPa 0,0 l/m 14,7 km/h N 3,9 C 11,2 C 31,0 km/h
21.04.2015 12:00 15,5 C 43 % 1023,0 hPa 0,0 l/m 15,5 km/h N 3,0 C 11,7 C 30,2 km/h
21.04.2015 13:00 17,9 C 38 % 1022,0 hPa 0,0 l/m 14,8 km/h N 3,3 C 14,8 C 31,4 km/h
21.04.2015 14:00 18,7 C 34 % 1021,3 hPa 0,0 l/m 16,5 km/h N 2,6 C 15,3 C 34,6 km/h
21.04.2015 15:00 19,0 C 32 % 1020,3 hPa 0,0 l/m 16,9 km/h N 2,1 C 15,7 C 37,0 km/h
21.04.2015 16:00 19,6 C 33 % 1019,7 hPa 0,0 l/m 16,3 km/h N 2,7 C 16,4 C 34,2 km/h
21.04.2015 17:00 19,8 C 31 % 1019,4 hPa 0,0 l/m 17,3 km/h N 2,0 C 16,5 C 40,3 km/h
21.04.2015 18:00 19,8 C 31 % 1019,0 hPa 0,0 l/m 14,1 km/h N 2,2 C 17,2 C 34,6 km/h
21.04.2015 19:00 19,4 C 29 % 1019,0 hPa 0,0 l/m 11,0 km/h N 1,0 C 17,6 C 26,9 km/h
21.04.2015 20:00 18,1 C 31 % 1019,7 hPa 0,0 l/m 9,2 km/h N 0,6 C 16,9 C 24,1 km/h
21.04.2015 21:00 17,5 C 32 % 1020,7 hPa 0,0 l/m 8,8 km/h N 0,7 C 16,4 C 22,5 km/h
21.04.2015 22:00 16,5 C 35 % 1021,0 hPa 0,0 l/m 6,2 km/h N 0,9 C 16,5 C 15,7 km/h
21.04.2015 23:00 16,3 C 35 % 1021,3 hPa 0,0 l/m 8,8 km/h N 0,9 C 15,1 C 20,1 km/h
22.04.2015 00:00 15,7 C 37 % 1021,5 hPa 0,0 l/m 9,9 km/h N 0,9 C 14,0 C 22,9 km/h
22.04.2015 01:00 15,0 C 39 % 1021,4 hPa 0,0 l/m 10,6 km/h N 1,1 C 12,9 C 24,5 km/h
22.04.2015 02:00 14,6 C 40 % 1021,3 hPa 0,0 l/m 9,4 km/h N 1,1 C 12,9 C 22,1 km/h
22.04.2015 03:00 14,3 C 41 % 1021,2 hPa 0,0 l/m 11,2 km/h N 1,2 C 11,8 C 25,4 km/h
22.04.2015 04:00 13,4 C 44 % 1021,3 hPa 0,0 l/m 8,4 km/h N 1,4 C 12,2 C 20,9 km/h
22.04.2015 05:00 12,7 C 47 % 1021,4 hPa 0,0 l/m 7,9 km/h N 1,7 C 11,7 C 21,3 km/h
22.04.2015 06:00 12,1 C 50 % 1021,8 hPa 0,0 l/m 5,5 km/h N 2,0 C 12,1 C 16,1 km/h
22.04.2015 07:00 12,8 C 50 % 1022,2 hPa 0,0 l/m 5,6 km/h N 2,7 C 12,8 C 15,7 km/h
22.04.2015 08:00 14,0 C 48 % 1022,4 hPa 0,0 l/m 8,9 km/h N 3,1 C 12,5 C 21,3 km/h
22.04.2015 09:00 15,0 C 48 % 1022,5 hPa 0,0 l/m 8,8 km/h N 4,0 C 13,7 C 20,5 km/h
22.04.2015 10:00 16,0 C 47 % 1022,5 hPa 0,0 l/m 6,9 km/h N 4,7 C 15,6 C 16,1 km/h
22.04.2015 11:00 17,0 C 44 % 1022,2 hPa 0,0 l/m 8,4 km/h N 4,6 C 16,1 C 20,1 km/h
22.04.2015 12:00 17,9 C 40 % 1021,4 hPa 0,0 l/m 9,4 km/h N 3,9 C 16,6 C 22,5 km/h
22.04.2015 13:00 18,2 C 38 % 1020,7 hPa 0,0 l/m 6,6 km/h N 3,7 C 17,9 C 20,1 km/h
22.04.2015 14:00 18,5 C 38 % 1020,0 hPa 0,0 l/m 5,6 km/h N 3,8 C 18,4 C 16,1 km/h
22.04.2015 15:00 18,8 C 37 % 1019,4 hPa 0,0 l/m 3,7 km/h N 3,9 C 18,8 C 13,3 km/h
22.04.2015 16:00 19,3 C 37 % 1018,9 hPa 0,0 l/m 3,6 km/h N 4,1 C 19,3 C 13,3 km/h
22.04.2015 17:00 19,0 C 39 % 1018,6 hPa 0,0 l/m 1,4 km/h N 4,6 C 19,0 C 10,5 km/h
22.04.2015 18:00 17,7 C 43 % 1018,6 hPa 0,0 l/m 0,4 km/h N 5,0 C 17,7 C 6,4 km/h
22.04.2015 19:00 16,4 C 49 % 1018,6 hPa 0,0 l/m 0,1 km/h N 5,5 C 16,4 C 3,2 km/h
22.04.2015 20:00 14,2 C 54 % 1018,8 hPa 0,0 l/m 0,0 km/h N 4,9 C 14,2 C 0,4 km/h
22.04.2015 21:00 11,4 C 64 % 1019,0 hPa 0,0 l/m 0,0 km/h N 4,8 C 11,4 C 0,0 km/h
22.04.2015 22:00 9,5 C 71 % 1019,1 hPa 0,0 l/m 0,0 km/h N 4,4 C 9,5 C 0,0 km/h
22.04.2015 23:00 8,1 C 76 % 1019,1 hPa 0,0 l/m 0,0 km/h N 4,2 C 8,1 C 0,8 km/h
23.04.2015 00:00 7,4 C 79 % 1018,8 hPa 0,0 l/m 0,0 km/h N 4,0 C 7,4 C 0,0 km/h
23.04.2015 01:00 7,5 C 81 % 1018,8 hPa 0,0 l/m 0,0 km/h N 4,5 C 7,5 C 0,0 km/h
23.04.2015 02:00 7,9 C 82 % 1018,3 hPa 0,0 l/m 0,0 km/h N 4,9 C 7,9 C 0,0 km/h
23.04.2015 03:00 7,8 C 82 % 1017,9 hPa 0,0 l/m 0,0 km/h N 4,9 C 7,8 C 0,0 km/h
23.04.2015 04:00 8,0 C 83 % 1017,7 hPa 0,0 l/m 0,1 km/h N 5,2 C 8,0 C 1,6 km/h
23.04.2015 05:00 8,7 C 80 % 1017,8 hPa 0,0 l/m 0,0 km/h N 5,4 C 8,7 C 0,4 km/h
23.04.2015 06:00 8,5 C 79 % 1018,2 hPa 0,0 l/m 0,0 km/h N 5,1 C 8,5 C 0,8 km/h
23.04.2015 07:00 10,8 C 72 % 1018,4 hPa 0,0 l/m 4,4 km/h N 5,9 C 10,8 C 14,1 km/h
23.04.2015 08:00 12,1 C 66 % 1018,4 hPa 0,0 l/m 6,0 km/h N 5,9 C 12,1 C 14,9 km/h
23.04.2015 09:00 13,1 C 62 % 1018,4 hPa 0,0 l/m 4,2 km/h N 6,1 C 13,1 C 10,1 km/h
23.04.2015 10:00 14,7 C 58 % 1018,4 hPa 0,0 l/m 1,8 km/h N 6,4 C 14,7 C 8,4 km/h
23.04.2015 11:00 16,1 C 56 % 1018,1 hPa 0,0 l/m 0,6 km/h N 7,3 C 16,1 C 6,8 km/h
23.04.2015 12:00 16,8 C 54 % 1017,2 hPa 0,0 l/m 1,3 km/h N 7,3 C 16,8 C 8,0 km/h
23.04.2015 13:00 17,6 C 52 % 1016,5 hPa 0,0 l/m 1,4 km/h N 7,6 C 17,6 C 9,3 km/h
23.04.2015 14:00 19,3 C 45 % 1015,7 hPa 0,0 l/m 2,8 km/h N 7,0 C 19,3 C 12,5 km/h
23.04.2015 15:00 20,1 C 41 % 1014,6 hPa 0,0 l/m 4,3 km/h N 6,4 C 20,1 C 16,1 km/h
23.04.2015 16:00 20,4 C 39 % 1013,8 hPa 0,0 l/m 3,0 km/h N 6,0 C 20,4 C 15,3 km/h
23.04.2015 17:00 20,1 C 38 % 1013,3 hPa 0,0 l/m 1,2 km/h N 5,5 C 20,1 C 8,0 km/h
23.04.2015 18:00 16,0 C 54 % 1014,1 hPa 0,0 l/m 8,5 km/h N 6,6 C 14,5 C 24,9 km/h
23.04.2015 19:00 12,2 C 61 % 1014,6 hPa 0,0 l/m 6,6 km/h N 5,0 C 11,9 C 22,9 km/h
23.04.2015 20:00 10,9 C 63 % 1015,1 hPa 0,0 l/m 7,1 km/h N 4,2 C 10,4 C 25,8 km/h
23.04.2015 21:00 10,8 C 63 % 1015,5 hPa 0,0 l/m 6,2 km/h N 4,0 C 10,6 C 23,3 km/h
23.04.2015 22:00 10,9 C 62 % 1015,3 hPa 0,0 l/m 5,4 km/h N 3,9 C 10,9 C 18,9 km/h
23.04.2015 23:00 10,6 C 63 % 1015,4 hPa 0,0 l/m 2,2 km/h N 3,8 C 10,6 C 13,7 km/h
24.04.2015 00:00 10,2 C 65 % 1015,3 hPa 0,0 l/m 1,5 km/h N 3,8 C 10,2 C 10,5 km/h
24.04.2015 01:00 9,9 C 66 % 1014,9 hPa 0,0 l/m 3,3 km/h N 3,8 C 9,9 C 12,1 km/h
24.04.2015 02:00 9,8 C 65 % 1014,6 hPa 0,0 l/m 1,7 km/h N 3,6 C 9,8 C 10,9 km/h
24.04.2015 03:00 9,8 C 65 % 1014,4 hPa 0,0 l/m 2,8 km/h N 3,4 C 9,8 C 12,5 km/h
24.04.2015 04:00 9,5 C 64 % 1014,4 hPa 0,0 l/m 1,4 km/h N 3,0 C 9,5 C 8,0 km/h
24.04.2015 05:00 9,4 C 64 % 1014,6 hPa 0,0 l/m 1,2 km/h N 2,9 C 9,4 C 7,2 km/h
24.04.2015 06:00 9,9 C 62 % 1015,0 hPa 0,0 l/m 1,5 km/h N 3,0 C 9,9 C 8,8 km/h
24.04.2015 07:00 10,5 C 62 % 1015,3 hPa 0,0 l/m 1,7 km/h N 3,5 C 10,5 C 10,5 km/h
24.04.2015 08:00 12,8 C 55 % 1015,6 hPa 0,0 l/m 6,9 km/h N 4,0 C 12,0 C 17,7 km/h
24.04.2015 09:00 14,4 C 51 % 1015,7 hPa 0,0 l/m 6,1 km/h N 4,3 C 14,2 C 17,3 km/h
24.04.2015 10:00 15,6 C 46 % 1015,8 hPa 0,0 l/m 6,6 km/h N 3,9 C 15,4 C 17,3 km/h
24.04.2015 11:00 17,5 C 42 % 1015,5 hPa 0,0 l/m 4,1 km/h N 4,4 C 17,5 C 11,3 km/h
24.04.2015 12:00 19,7 C 41 % 1015,0 hPa 0,0 l/m 3,2 km/h N 6,0 C 19,7 C 13,7 km/h
24.04.2015 13:00 18,4 C 43 % 1014,8 hPa 0,0 l/m 2,8 km/h N 5,6 C 18,4 C 10,9 km/h
24.04.2015 14:00 18,4 C 43 % 1014,7 hPa 0,0 l/m 1,2 km/h N 5,7 C 18,4 C 6,8 km/h
24.04.2015 15:00 18,8 C 44 % 1014,4 hPa 0,0 l/m 1,8 km/h N 6,3 C 18,8 C 8,8 km/h
24.04.2015 16:00 18,9 C 42 % 1014,0 hPa 0,0 l/m 2,0 km/h N 5,6 C 18,9 C 8,9 km/h
24.04.2015 17:00 18,8 C 43 % 1013,6 hPa 0,0 l/m 1,2 km/h N 6,0 C 18,8 C 6,9 km/h
24.04.2015 18:00 18,5 C 44 % 1013,4 hPa 0,0 l/m 0,2 km/h N 6,1 C 18,5 C 2,8 km/h
24.04.2015 19:00 17,9 C 47 % 1013,3 hPa 0,0 l/m 0,1 km/h N 6,3 C 17,9 C 2,0 km/h
24.04.2015 20:00 15,7 C 56 % 1013,7 hPa 0,0 l/m 0,0 km/h N 6,8 C 15,7 C 0,0 km/h
24.04.2015 21:00 12,5 C 66 % 1013,9 hPa 0,0 l/m 0,0 km/h N 6,3 C 12,5 C 0,0 km/h
24.04.2015 22:00 10,8 C 71 % 1014,0 hPa 0,0 l/m 0,1 km/h N 5,8 C 10,8 C 0,8 km/h
24.04.2015 23:00 9,9 C 75 % 1014,0 hPa 0,0 l/m 0,0 km/h N 5,6 C 9,9 C 0,8 km/h
25.04.2015 00:00 8,8 C 78 % 1014,0 hPa 0,0 l/m 0,0 km/h N 5,1 C 8,8 C 0,4 km/h
25.04.2015 01:00 7,8 C 80 % 1013,7 hPa 0,0 l/m 0,0 km/h N 4,5 C 7,8 C 0,0 km/h
25.04.2015 02:00 7,2 C 82 % 1013,5 hPa 0,0 l/m 0,0 km/h N 4,3 C 7,2 C 1,6 km/h
25.04.2015 03:00 6,9 C 83 % 1013,5 hPa 0,0 l/m 0,1 km/h N 4,2 C 6,9 C 1,2 km/h
25.04.2015 04:00 6,3 C 84 % 1013,4 hPa 0,0 l/m 0,0 km/h N 3,7 C 6,3 C 0,4 km/h
25.04.2015 05:00 5,3 C 84 % 1013,4 hPa 0,0 l/m 0,1 km/h N 2,8 C 5,3 C 0,8 km/h
25.04.2015 06:00 4,9 C 84 % 1013,6 hPa 0,0 l/m 0,0 km/h N 2,4 C 4,9 C 0,0 km/h
25.04.2015 07:00 6,3 C 82 % 1013,8 hPa 0,0 l/m 0,0 km/h N 3,4 C 6,3 C 0,4 km/h
25.04.2015 08:00 10,4 C 81 % 1013,8 hPa 0,0 l/m 0,2 km/h N 7,2 C 10,4 C 3,2 km/h
25.04.2015 09:00 15,0 C 67 % 1013,7 hPa 0,0 l/m 0,8 km/h N 8,9 C 15,0 C 5,2 km/h
25.04.2015 10:00 17,8 C 58 % 1013,3 hPa 0,0 l/m 1,8 km/h N 9,4 C 17,8 C 7,6 km/h
25.04.2015 11:00 20,5 C 52 % 1012,9 hPa 0,0 l/m 2,0 km/h N 10,3 C 20,5 C 8,9 km/h
25.04.2015 12:00 22,2 C 51 % 1012,2 hPa 0,0 l/m 1,4 km/h N 11,4 C 22,2 C 8,9 km/h
25.04.2015 13:00 23,9 C 45 % 1011,1 hPa 0,0 l/m 1,8 km/h N 11,1 C 23,9 C 10,8 km/h
25.04.2015 14:00 24,5 C 39 % 1010,3 hPa 0,0 l/m 2,5 km/h N 9,5 C 24,5 C 13,3 km/h
25.04.2015 15:00 24,3 C 36 % 1009,3 hPa 0,0 l/m 4,3 km/h N 8,4 C 24,3 C 16,5 km/h
25.04.2015 16:00 24,0 C 35 % 1008,8 hPa 0,0 l/m 4,5 km/h N 7,7 C 24,0 C 14,5 km/h
25.04.2015 17:00 23,6 C 34 % 1008,6 hPa 0,0 l/m 5,1 km/h N 6,7 C 23,6 C 13,3 km/h
25.04.2015 18:00 22,6 C 37 % 1008,4 hPa 0,0 l/m 4,0 km/h N 7,3 C 22,6 C 14,5 km/h
25.04.2015 19:00 21,3 C 41 % 1008,4 hPa 0,0 l/m 1,7 km/h N 7,4 C 21,3 C 9,3 km/h
25.04.2015 20:00 19,4 C 46 % 1008,7 hPa 0,0 l/m 0,3 km/h N 7,6 C 19,4 C 5,2 km/h
25.04.2015 21:00 17,0 C 54 % 1009,0 hPa 0,0 l/m 0,0 km/h N 7,6 C 17,0 C 2,0 km/h
25.04.2015 22:00 15,3 C 62 % 1008,8 hPa 0,0 l/m 0,0 km/h N 8,0 C 15,3 C 0,8 km/h
25.04.2015 23:00 14,3 C 68 % 1008,9 hPa 0,0 l/m 0,0 km/h N 8,4 C 14,3 C 0,8 km/h
26.04.2015 00:00 13,1 C 73 % 1009,0 hPa 0,0 l/m 0,1 km/h N 8,3 C 13,1 C 0,8 km/h
26.04.2015 01:00 12,1 C 77 % 1008,8 hPa 0,0 l/m 0,0 km/h N 8,1 C 12,1 C 0,4 km/h
26.04.2015 02:00 11,7 C 79 % 1008,8 hPa 0,0 l/m 0,1 km/h N 8,2 C 11,7 C 0,8 km/h
26.04.2015 03:00 11,4 C 81 % 1008,9 hPa 0,0 l/m 0,1 km/h N 8,2 C 11,4 C 1,6 km/h
26.04.2015 04:00 13,3 C 72 % 1008,8 hPa 0,0 l/m 4,7 km/h N 8,1 C 12,9 C 14,9 km/h
26.04.2015 05:00 15,8 C 61 % 1008,8 hPa 0,0 l/m 6,5 km/h N 8,2 C 15,6 C 16,1 km/h
26.04.2015 06:00 15,4 C 64 % 1009,4 hPa 0,0 l/m 4,3 km/h N 8,5 C 15,4 C 14,5 km/h
26.04.2015 07:00 15,4 C 66 % 1009,8 hPa 0,0 l/m 4,8 km/h N 9,0 C 15,3 C 12,5 km/h
26.04.2015 08:00 16,4 C 66 % 1010,1 hPa 0,0 l/m 6,6 km/h N 9,9 C 15,9 C 17,3 km/h
26.04.2015 09:00 17,5 C 65 % 1010,3 hPa 0,0 l/m 7,5 km/h N 10,9 C 16,8 C 18,1 km/h
26.04.2015 10:00 18,4 C 62 % 1010,2 hPa 0,0 l/m 7,6 km/h N 10,8 C 17,8 C 17,3 km/h
26.04.2015 11:00 19,1 C 60 % 1010,1 hPa 0,0 l/m 6,9 km/h N 11,1 C 18,8 C 21,3 km/h
26.04.2015 12:00 20,0 C 57 % 1009,8 hPa 0,0 l/m 7,1 km/h N 11,1 C 19,6 C 20,5 km/h
26.04.2015 13:00 20,0 C 53 % 1009,5 hPa 0,0 l/m 7,4 km/h N 10,1 C 19,6 C 19,3 km/h
26.04.2015 14:00 21,4 C 49 % 1008,8 hPa 0,0 l/m 4,8 km/h N 10,1 C 21,3 C 17,3 km/h
26.04.2015 15:00 21,7 C 48 % 1008,2 hPa 0,0 l/m 3,5 km/h N 10,1 C 21,7 C 14,5 km/h
26.04.2015 16:00 22,2 C 47 % 1007,5 hPa 0,0 l/m 3,6 km/h N 10,2 C 22,2 C 12,0 km/h
26.04.2015 17:00 21,3 C 49 % 1007,3 hPa 0,0 l/m 4,9 km/h N 10,3 C 21,2 C 15,7 km/h
26.04.2015 18:00 19,8 C 60 % 1007,4 hPa 0,0 l/m 3,7 km/h N 11,6 C 19,8 C 12,9 km/h
26.04.2015 19:00 18,1 C 67 % 1007,2 hPa 0,0 l/m 2,0 km/h N 11,9 C 18,1 C 9,7 km/h
26.04.2015 20:00 16,5 C 72 % 1007,0 hPa 0,0 l/m 0,5 km/h N 11,4 C 16,5 C 6,0 km/h
26.04.2015 21:00 14,9 C 75 % 1007,1 hPa 0,0 l/m 0,1 km/h N 10,6 C 14,9 C 1,2 km/h
26.04.2015 22:00 14,1 C 78 % 1006,8 hPa 0,0 l/m 0,1 km/h N 10,3 C 14,1 C 2,4 km/h
26.04.2015 23:00 12,6 C 79 % 1006,6 hPa 0,0 l/m 0,0 km/h N 9,0 C 12,6 C 0,0 km/h
Min-Datum _ 20.04.15 21.04.15 26.04.15 - 20.04.15 - 20.04.15 20.04.15 20.04.15
_ Min-Zeit 01:15 17:15 23:45 - 00:00 - 00:15 01:00 00:00
Minimum _ 3,2 C 29 % 1006,5 hPa - 0,0 km/h - -0,0 C 3,2 C 0,0 km/h
Max-Datum _ 25.04.15 25.04.15 21.04.15 20.04.15 20.04.15 - 26.04.15 25.04.15 21.04.15
_ Max-Zeit 14:45 04:30 08:30 00:00 12:30 - 19:00 14:30 15:00
Maximum _ 24,8 C 84 % 1024,6 hPa 0,0 l/m 20,3 km/h
N
- 12,8 C 24,7 C 45,1 km/h
N
Durchschnitt _ 14,4 C 55 % 1016,2 hPa #0,0 l/m 5,2 km/h N 5,0 C 13,7 C 14,2 km/h